sensor_id;sensor_type;location;lat;lon;timestamp;temperature;humidity
76299;DHT22;65236;42.332;23.550;2023-01-10T00:01:56;2.65;78.95
76299;DHT22;65236;42.332;23.550;2023-01-10T00:04:23;2.63;78.81
76299;DHT22;65236;42.332;23.550;2023-01-10T00:06:50;2.53;79.29
76299;DHT22;65236;42.332;23.550;2023-01-10T00:09:16;2.57;79.23
76299;DHT22;65236;42.332;23.550;2023-01-10T00:11:41;2.63;79.00
76299;DHT22;65236;42.332;23.550;2023-01-10T00:14:26;2.60;78.83
76299;DHT22;65236;42.332;23.550;2023-01-10T00:16:52;2.58;78.69
76299;DHT22;65236;42.332;23.550;2023-01-10T00:19:18;2.57;78.81
76299;DHT22;65236;42.332;23.550;2023-01-10T00:21:43;2.61;78.81
76299;DHT22;65236;42.332;23.550;2023-01-10T00:24:10;2.67;78.63
76299;DHT22;65236;42.332;23.550;2023-01-10T00:26:45;2.71;78.34
76299;DHT22;65236;42.332;23.550;2023-01-10T00:29:24;2.54;78.76
76299;DHT22;65236;42.332;23.550;2023-01-10T00:31:50;2.54;78.69
76299;DHT22;65236;42.332;23.550;2023-01-10T00:34:15;2.28;79.64
76299;DHT22;65236;42.332;23.550;2023-01-10T00:36:41;2.34;79.58
76299;DHT22;65236;42.332;23.550;2023-01-10T00:39:07;2.42;79.22
76299;DHT22;65236;42.332;23.550;2023-01-10T00:41:35;2.49;79.01
76299;DHT22;65236;42.332;23.550;2023-01-10T00:44:18;2.50;78.84
76299;DHT22;65236;42.332;23.550;2023-01-10T00:46:44;2.46;78.80
76299;DHT22;65236;42.332;23.550;2023-01-10T00:49:09;2.47;79.03
76299;DHT22;65236;42.332;23.550;2023-01-10T00:51:38;2.54;78.73
76299;DHT22;65236;42.332;23.550;2023-01-10T00:54:03;2.57;78.48
76299;DHT22;65236;42.332;23.550;2023-01-10T00:56:28;2.58;78.41
76299;DHT22;65236;42.332;23.550;2023-01-10T00:58:54;2.58;78.61
76299;DHT22;65236;42.332;23.550;2023-01-10T01:01:19;2.47;78.65
76299;DHT22;65236;42.332;23.550;2023-01-10T01:03:45;2.53;78.91
76299;DHT22;65236;42.332;23.550;2023-01-10T01:06:10;2.34;79.60
76299;DHT22;65236;42.332;23.550;2023-01-10T01:08:36;2.23;79.91
76299;DHT22;65236;42.332;23.550;2023-01-10T01:11:01;2.34;79.95
76299;DHT22;65236;42.332;23.550;2023-01-10T01:13:27;2.34;79.75
76299;DHT22;65236;42.332;23.550;2023-01-10T01:15:52;2.47;79.59
76299;DHT22;65236;42.332;23.550;2023-01-10T01:18:19;2.60;79.42
76299;DHT22;65236;42.332;23.550;2023-01-10T01:20:46;2.57;79.81
76299;DHT22;65236;42.332;23.550;2023-01-10T01:23:12;2.53;79.85
76299;DHT22;65236;42.332;23.550;2023-01-10T01:25:38;2.23;81.17
76299;DHT22;65236;42.332;23.550;2023-01-10T01:28:04;2.32;80.94
76299;DHT22;65236;42.332;23.550;2023-01-10T01:30:29;2.44;80.45
76299;DHT22;65236;42.332;23.550;2023-01-10T01:32:55;2.43;80.20
76299;DHT22;65236;42.332;23.550;2023-01-10T01:35:20;2.37;80.48
76299;DHT22;65236;42.332;23.550;2023-01-10T01:37:46;2.42;80.37
76299;DHT22;65236;42.332;23.550;2023-01-10T01:40:15;2.43;80.20
76299;DHT22;65236;42.332;23.550;2023-01-10T01:42:41;2.29;80.34
76299;DHT22;65236;42.332;23.550;2023-01-10T01:47:35;1.99;81.96
76299;DHT22;65236;42.332;23.550;2023-01-10T01:50:03;2.02;81.87
76299;DHT22;65236;42.332;23.550;2023-01-10T01:52:30;1.78;82.46
76299;DHT22;65236;42.332;23.550;2023-01-10T01:55:00;1.85;82.25
76299;DHT22;65236;42.332;23.550;2023-01-10T01:57:28;1.85;82.18
76299;DHT22;65236;42.332;23.550;2023-01-10T01:59:55;1.60;83.28
76299;DHT22;65236;42.332;23.550;2023-01-10T02:02:25;1.47;83.99
76299;DHT22;65236;42.332;23.550;2023-01-10T02:04:54;1.64;83.77
76299;DHT22;65236;42.332;23.550;2023-01-10T02:07:22;1.79;83.46
76299;DHT22;65236;42.332;23.550;2023-01-10T02:12:49;1.70;84.08
76299;DHT22;65236;42.332;23.550;2023-01-10T02:15:17;1.79;83.60
76299;DHT22;65236;42.332;23.550;2023-01-10T02:17:43;1.92;83.27
76299;DHT22;65236;42.332;23.550;2023-01-10T02:20:12;1.98;82.76
76299;DHT22;65236;42.332;23.550;2023-01-10T02:25:54;1.99;83.16
76299;DHT22;65236;42.332;23.550;2023-01-10T02:37:04;2.08;82.99
76299;DHT22;65236;42.332;23.550;2023-01-10T02:42:38;2.22;82.70
76299;DHT22;65236;42.332;23.550;2023-01-10T02:47:51;2.33;82.00
76299;DHT22;65236;42.332;23.550;2023-01-10T02:53:08;2.28;82.76
76299;DHT22;65236;42.332;23.550;2023-01-10T03:01:20;2.33;83.78
76299;DHT22;65236;42.332;23.550;2023-01-10T03:06:43;2.44;83.03
76299;DHT22;65236;42.332;23.550;2023-01-10T03:11:38;2.50;81.97
76299;DHT22;65236;42.332;23.550;2023-01-10T03:14:21;2.50;81.78
76299;DHT22;65236;42.332;23.550;2023-01-10T03:17:05;2.50;81.32
76299;DHT22;65236;42.332;23.550;2023-01-10T03:19:34;2.49;80.56
76299;DHT22;65236;42.332;23.550;2023-01-10T03:22:02;2.50;80.60
76299;DHT22;65236;42.332;23.550;2023-01-10T03:24:44;2.32;80.86
76299;DHT22;65236;42.332;23.550;2023-01-10T03:32:40;2.42;80.63
76299;DHT22;65236;42.332;23.550;2023-01-10T03:35:06;2.42;80.49
76299;DHT22;65236;42.332;23.550;2023-01-10T03:45:53;2.36;81.30
76299;DHT22;65236;42.332;23.550;2023-01-10T03:48:21;2.43;81.15
76299;DHT22;65236;42.332;23.550;2023-01-10T03:50:51;2.39;80.62
76299;DHT22;65236;42.332;23.550;2023-01-10T03:53:16;2.39;80.78
76299;DHT22;65236;42.332;23.550;2023-01-10T03:55:43;2.43;80.70
76299;DHT22;65236;42.332;23.550;2023-01-10T03:58:09;2.44;80.81
76299;DHT22;65236;42.332;23.550;2023-01-10T04:00:34;2.44;80.94
76299;DHT22;65236;42.332;23.550;2023-01-10T04:03:00;2.46;80.88
76299;DHT22;65236;42.332;23.550;2023-01-10T04:05:25;2.37;81.36
76299;DHT22;65236;42.332;23.550;2023-01-10T04:07:51;2.42;81.34
76299;DHT22;65236;42.332;23.550;2023-01-10T04:10:16;2.51;81.10
76299;DHT22;65236;42.332;23.550;2023-01-10T04:12:42;2.53;80.96
76299;DHT22;65236;42.332;23.550;2023-01-10T04:15:08;2.57;80.73
76299;DHT22;65236;42.332;23.550;2023-01-10T04:17:33;2.54;80.78
76299;DHT22;65236;42.332;23.550;2023-01-10T04:19:59;2.57;80.89
76299;DHT22;65236;42.332;23.550;2023-01-10T04:22:24;2.56;81.01
76299;DHT22;65236;42.332;23.550;2023-01-10T04:24:49;2.51;81.19
76299;DHT22;65236;42.332;23.550;2023-01-10T04:27:16;2.53;81.11
76299;DHT22;65236;42.332;23.550;2023-01-10T04:29:42;2.43;81.29
76299;DHT22;65236;42.332;23.550;2023-01-10T04:32:07;2.39;81.54
76299;DHT22;65236;42.332;23.550;2023-01-10T04:34:33;2.39;81.74
76299;DHT22;65236;42.332;23.550;2023-01-10T04:36:58;2.40;81.76
76299;DHT22;65236;42.332;23.550;2023-01-10T04:39:24;2.42;81.82
76299;DHT22;65236;42.332;23.550;2023-01-10T04:41:49;2.51;81.68
76299;DHT22;65236;42.332;23.550;2023-01-10T04:44:14;2.58;81.42
76299;DHT22;65236;42.332;23.550;2023-01-10T04:46:40;2.63;81.26
76299;DHT22;65236;42.332;23.550;2023-01-10T04:49:05;2.64;81.08
76299;DHT22;65236;42.332;23.550;2023-01-10T04:51:31;2.71;81.00
76299;DHT22;65236;42.332;23.550;2023-01-10T04:53:57;2.74;80.83
76299;DHT22;65236;42.332;23.550;2023-01-10T04:56:23;2.64;81.10
76299;DHT22;65236;42.332;23.550;2023-01-10T04:58:49;2.68;80.93
76299;DHT22;65236;42.332;23.550;2023-01-10T05:01:17;2.58;81.23
76299;DHT22;65236;42.332;23.550;2023-01-10T05:03:50;2.65;81.06
76299;DHT22;65236;42.332;23.550;2023-01-10T05:06:16;2.73;80.75
76299;DHT22;65236;42.332;23.550;2023-01-10T05:08:42;2.76;80.69
76299;DHT22;65236;42.332;23.550;2023-01-10T05:11:08;2.74;80.68
76299;DHT22;65236;42.332;23.550;2023-01-10T05:13:34;2.73;80.65
76299;DHT22;65236;42.332;23.550;2023-01-10T05:15:59;2.64;81.28
76299;DHT22;65236;42.332;23.550;2023-01-10T05:18:26;2.64;81.39
76299;DHT22;65236;42.332;23.550;2023-01-10T05:20:52;2.76;81.17
76299;DHT22;65236;42.332;23.550;2023-01-10T05:23:18;2.84;80.90
76299;DHT22;65236;42.332;23.550;2023-01-10T05:25:43;2.92;80.57
76299;DHT22;65236;42.332;23.550;2023-01-10T05:28:09;2.94;80.37
76299;DHT22;65236;42.332;23.550;2023-01-10T05:30:35;2.88;80.58
76299;DHT22;65236;42.332;23.550;2023-01-10T05:33:03;2.83;80.97
76299;DHT22;65236;42.332;23.550;2023-01-10T05:35:28;2.73;81.28
76299;DHT22;65236;42.332;23.550;2023-01-10T05:37:54;2.61;81.99
76299;DHT22;65236;42.332;23.550;2023-01-10T05:40:19;2.68;81.87
76299;DHT22;65236;42.332;23.550;2023-01-10T05:42:45;2.70;81.67
76299;DHT22;65236;42.332;23.550;2023-01-10T05:45:10;2.74;81.56
76299;DHT22;65236;42.332;23.550;2023-01-10T05:47:36;2.61;81.84
76299;DHT22;65236;42.332;23.550;2023-01-10T05:50:01;2.58;82.13
76299;DHT22;65236;42.332;23.550;2023-01-10T05:52:27;2.50;81.90
76299;DHT22;65236;42.332;23.550;2023-01-10T05:54:52;2.39;82.38
76299;DHT22;65236;42.332;23.550;2023-01-10T05:57:18;2.32;82.92
76299;DHT22;65236;42.332;23.550;2023-01-10T05:59:43;2.33;82.88
76299;DHT22;65236;42.332;23.550;2023-01-10T06:02:09;2.18;83.18
76299;DHT22;65236;42.332;23.550;2023-01-10T06:04:34;2.13;84.08
76299;DHT22;65236;42.332;23.550;2023-01-10T06:07:00;2.11;84.11
76299;DHT22;65236;42.332;23.550;2023-01-10T06:09:25;2.06;84.50
76299;DHT22;65236;42.332;23.550;2023-01-10T06:11:51;2.02;85.10
76299;DHT22;65236;42.332;23.550;2023-01-10T06:14:16;2.11;84.99
76299;DHT22;65236;42.332;23.550;2023-01-10T06:16:44;2.19;84.90
76299;DHT22;65236;42.332;23.550;2023-01-10T06:19:10;2.32;84.69
76299;DHT22;65236;42.332;23.550;2023-01-10T06:21:35;2.39;84.60
76299;DHT22;65236;42.332;23.550;2023-01-10T06:24:01;2.34;84.29
76299;DHT22;65236;42.332;23.550;2023-01-10T06:26:26;2.30;84.92
76299;DHT22;65236;42.332;23.550;2023-01-10T06:28:52;2.43;84.71
76299;DHT22;65236;42.332;23.550;2023-01-10T06:31:17;2.54;84.64
76299;DHT22;65236;42.332;23.550;2023-01-10T06:33:42;2.63;84.25
76299;DHT22;65236;42.332;23.550;2023-01-10T06:36:08;2.64;83.87
76299;DHT22;65236;42.332;23.550;2023-01-10T06:38:34;2.57;83.94
76299;DHT22;65236;42.332;23.550;2023-01-10T06:40:59;2.44;84.02
76299;DHT22;65236;42.332;23.550;2023-01-10T06:43:40;2.23;85.17
76299;DHT22;65236;42.332;23.550;2023-01-10T06:46:06;2.28;84.93
76299;DHT22;65236;42.332;23.550;2023-01-10T06:48:34;2.09;85.67
76299;DHT22;65236;42.332;23.550;2023-01-10T06:51:00;1.94;86.25
76299;DHT22;65236;42.332;23.550;2023-01-10T06:53:25;1.95;86.37
76299;DHT22;65236;42.332;23.550;2023-01-10T06:55:53;1.75;87.05
76299;DHT22;65236;42.332;23.550;2023-01-10T06:58:19;1.68;87.35
76299;DHT22;65236;42.332;23.550;2023-01-10T07:00:44;1.61;87.86
76299;DHT22;65236;42.332;23.550;2023-01-10T07:03:09;1.58;88.82
76299;DHT22;65236;42.332;23.550;2023-01-10T07:05:35;1.70;89.36
76299;DHT22;65236;42.332;23.550;2023-01-10T07:08:00;1.77;89.37
76299;DHT22;65236;42.332;23.550;2023-01-10T07:10:26;1.89;89.07
76299;DHT22;65236;42.332;23.550;2023-01-10T07:12:55;2.02;88.36
76299;DHT22;65236;42.332;23.550;2023-01-10T07:15:21;2.08;87.95
76299;DHT22;65236;42.332;23.550;2023-01-10T07:17:47;2.08;87.51
76299;DHT22;65236;42.332;23.550;2023-01-10T07:20:12;2.02;87.40
76299;DHT22;65236;42.332;23.550;2023-01-10T07:22:38;1.98;87.46
76299;DHT22;65236;42.332;23.550;2023-01-10T07:25:04;1.97;87.24
76299;DHT22;65236;42.332;23.550;2023-01-10T07:27:30;2.01;87.60
76299;DHT22;65236;42.332;23.550;2023-01-10T07:29:57;2.15;87.44
76299;DHT22;65236;42.332;23.550;2023-01-10T07:32:22;2.04;87.04
76299;DHT22;65236;42.332;23.550;2023-01-10T07:34:48;2.08;87.45
76299;DHT22;65236;42.332;23.550;2023-01-10T07:37:13;2.09;87.23
76299;DHT22;65236;42.332;23.550;2023-01-10T07:39:38;1.95;88.61
76299;DHT22;65236;42.332;23.550;2023-01-10T07:42:07;1.95;89.79
76299;DHT22;65236;42.332;23.550;2023-01-10T07:44:33;2.11;90.43
76299;DHT22;65236;42.332;23.550;2023-01-10T07:46:58;2.01;90.53
76299;DHT22;65236;42.332;23.550;2023-01-10T07:49:24;2.06;90.95
76299;DHT22;65236;42.332;23.550;2023-01-10T07:51:49;2.21;91.29
76299;DHT22;65236;42.332;23.550;2023-01-10T07:54:15;2.32;91.10
76299;DHT22;65236;42.332;23.550;2023-01-10T07:56:40;2.43;90.82
76299;DHT22;65236;42.332;23.550;2023-01-10T07:59:06;2.47;90.69
76299;DHT22;65236;42.332;23.550;2023-01-10T08:01:31;2.56;90.67
76299;DHT22;65236;42.332;23.550;2023-01-10T08:03:57;2.64;90.70
76299;DHT22;65236;42.332;23.550;2023-01-10T08:06:23;2.71;90.54
76299;DHT22;65236;42.332;23.550;2023-01-10T08:08:48;2.81;90.66
76299;DHT22;65236;42.332;23.550;2023-01-10T08:11:14;2.87;90.25
76299;DHT22;65236;42.332;23.550;2023-01-10T08:13:39;2.99;90.17
76299;DHT22;65236;42.332;23.550;2023-01-10T08:16:06;3.08;90.10
76299;DHT22;65236;42.332;23.550;2023-01-10T08:18:33;3.12;90.10
76299;DHT22;65236;42.332;23.550;2023-01-10T08:20:58;3.18;89.76
76299;DHT22;65236;42.332;23.550;2023-01-10T08:23:25;3.18;89.05
76299;DHT22;65236;42.332;23.550;2023-01-10T08:25:51;3.25;88.97
76299;DHT22;65236;42.332;23.550;2023-01-10T08:28:17;3.33;88.85
76299;DHT22;65236;42.332;23.550;2023-01-10T08:30:43;3.46;89.08
76299;DHT22;65236;42.332;23.550;2023-01-10T08:33:10;3.46;88.41
76299;DHT22;65236;42.332;23.550;2023-01-10T08:35:37;3.55;88.05
76299;DHT22;65236;42.332;23.550;2023-01-10T08:38:03;3.62;88.52
76299;DHT22;65236;42.332;23.550;2023-01-10T08:40:28;3.67;88.20
76299;DHT22;65236;42.332;23.550;2023-01-10T08:42:58;3.77;88.09
76299;DHT22;65236;42.332;23.550;2023-01-10T08:45:24;3.84;87.33
76299;DHT22;65236;42.332;23.550;2023-01-10T08:47:50;3.93;87.75
76299;DHT22;65236;42.332;23.550;2023-01-10T08:50:15;3.95;87.47
76299;DHT22;65236;42.332;23.550;2023-01-10T08:52:40;4.12;87.34
76299;DHT22;65236;42.332;23.550;2023-01-10T08:55:06;4.14;86.91
76299;DHT22;65236;42.332;23.550;2023-01-10T08:57:32;4.21;87.25
76299;DHT22;65236;42.332;23.550;2023-01-10T08:59:57;4.33;86.38
76299;DHT22;65236;42.332;23.550;2023-01-10T09:02:23;4.45;86.39
76299;DHT22;65236;42.332;23.550;2023-01-10T09:04:48;4.49;86.90
76299;DHT22;65236;42.332;23.550;2023-01-10T09:07:14;4.67;87.88
76299;DHT22;65236;42.332;23.550;2023-01-10T09:09:39;4.83;88.14
76299;DHT22;65236;42.332;23.550;2023-01-10T09:12:04;4.88;87.09
76299;DHT22;65236;42.332;23.550;2023-01-10T09:14:50;4.91;85.63
76299;DHT22;65236;42.332;23.550;2023-01-10T09:17:15;4.97;86.00
76299;DHT22;65236;42.332;23.550;2023-01-10T09:19:41;5.02;85.92
76299;DHT22;65236;42.332;23.550;2023-01-10T09:22:06;5.07;85.50
76299;DHT22;65236;42.332;23.550;2023-01-10T09:24:31;5.05;85.22
76299;DHT22;65236;42.332;23.550;2023-01-10T09:26:57;5.11;84.89
76299;DHT22;65236;42.332;23.550;2023-01-10T09:29:22;5.24;84.66
76299;DHT22;65236;42.332;23.550;2023-01-10T09:31:48;5.35;84.39
76299;DHT22;65236;42.332;23.550;2023-01-10T09:34:13;5.46;83.73
76299;DHT22;65236;42.332;23.550;2023-01-10T09:36:38;5.34;82.67
76299;DHT22;65236;42.332;23.550;2023-01-10T09:39:04;5.43;82.41
76299;DHT22;65236;42.332;23.550;2023-01-10T09:52:24;5.36;81.03
76299;DHT22;65236;42.332;23.550;2023-01-10T09:54:52;5.38;80.79
76299;DHT22;65236;42.332;23.550;2023-01-10T09:57:20;5.38;80.78
76299;DHT22;65236;42.332;23.550;2023-01-10T09:59:47;5.38;80.81
76299;DHT22;65236;42.332;23.550;2023-01-10T10:02:35;5.28;81.37
76299;DHT22;65236;42.332;23.550;2023-01-10T10:05:12;5.26;81.54
76299;DHT22;65236;42.332;23.550;2023-01-10T10:07:41;5.24;81.49
76299;DHT22;65236;42.332;23.550;2023-01-10T10:10:13;5.19;81.24
76299;DHT22;65236;42.332;23.550;2023-01-10T10:15:45;4.57;80.91
76299;DHT22;65236;42.332;23.550;2023-01-10T10:21:11;4.35;82.77
76299;DHT22;65236;42.332;23.550;2023-01-10T10:24:12;4.52;82.68
76299;DHT22;65236;42.332;23.550;2023-01-10T10:27:16;4.71;82.68
76299;DHT22;65236;42.332;23.550;2023-01-10T10:34:53;5.01;81.62
76299;DHT22;65236;42.332;23.550;2023-01-10T10:42:16;4.50;81.53
76299;DHT22;65236;42.332;23.550;2023-01-10T10:47:15;4.14;82.72
76299;DHT22;65236;42.332;23.550;2023-01-10T10:49:51;4.09;82.90
76299;DHT22;65236;42.332;23.550;2023-01-10T10:52:27;4.01;83.21
76299;DHT22;65236;42.332;23.550;2023-01-10T10:54:56;3.88;83.60
76299;DHT22;65236;42.332;23.550;2023-01-10T10:57:25;3.87;83.93
76299;DHT22;65236;42.332;23.550;2023-01-10T10:59:51;3.81;84.88
76299;DHT22;65236;42.332;23.550;2023-01-10T11:02:40;3.83;84.56
76299;DHT22;65236;42.332;23.550;2023-01-10T11:05:15;3.83;85.07
76299;DHT22;65236;42.332;23.550;2023-01-10T11:07:42;3.80;85.32
76299;DHT22;65236;42.332;23.550;2023-01-10T11:10:15;3.77;85.07
76299;DHT22;65236;42.332;23.550;2023-01-10T11:12:47;3.78;85.57
76299;DHT22;65236;42.332;23.550;2023-01-10T11:15:35;3.77;85.57
76299;DHT22;65236;42.332;23.550;2023-01-10T11:18:19;3.81;85.44
76299;DHT22;65236;42.332;23.550;2023-01-10T11:20:55;3.80;85.56
76299;DHT22;65236;42.332;23.550;2023-01-10T11:26:37;4.01;85.21
76299;DHT22;65236;42.332;23.550;2023-01-10T11:31:36;4.11;84.68
76299;DHT22;65236;42.332;23.550;2023-01-10T11:34:15;4.06;84.29
76299;DHT22;65236;42.332;23.550;2023-01-10T11:37:03;4.14;84.61
76299;DHT22;65236;42.332;23.550;2023-01-10T11:39:30;4.22;84.56
76299;DHT22;65236;42.332;23.550;2023-01-10T11:41:56;4.29;84.27
76299;DHT22;65236;42.332;23.550;2023-01-10T11:44:29;4.33;83.86
76299;DHT22;65236;42.332;23.550;2023-01-10T11:46:57;4.39;83.45
76299;DHT22;65236;42.332;23.550;2023-01-10T11:49:29;4.43;83.43
76299;DHT22;65236;42.332;23.550;2023-01-10T11:52:03;4.46;83.74
76299;DHT22;65236;42.332;23.550;2023-01-10T11:54:29;4.53;83.02
76299;DHT22;65236;42.332;23.550;2023-01-10T11:57:16;4.59;83.18
76299;DHT22;65236;42.332;23.550;2023-01-10T12:00:12;4.67;83.15
76299;DHT22;65236;42.332;23.550;2023-01-10T12:02:43;4.73;83.47
76299;DHT22;65236;42.332;23.550;2023-01-10T12:05:17;4.92;83.47
76299;DHT22;65236;42.332;23.550;2023-01-10T12:08:01;4.95;82.73
76299;DHT22;65236;42.332;23.550;2023-01-10T12:10:35;4.90;83.26
76299;DHT22;65236;42.332;23.550;2023-01-10T12:13:13;4.90;83.38
76299;DHT22;65236;42.332;23.550;2023-01-10T12:15:39;4.84;83.86
76299;DHT22;65236;42.332;23.550;2023-01-10T12:18:05;4.81;83.70
76299;DHT22;65236;42.332;23.550;2023-01-10T12:20:46;4.79;83.53
76299;DHT22;65236;42.332;23.550;2023-01-10T12:23:16;4.76;83.90
76299;DHT22;65236;42.332;23.550;2023-01-10T12:25:43;4.79;84.14
76299;DHT22;65236;42.332;23.550;2023-01-10T12:28:36;4.90;84.44
76299;DHT22;65236;42.332;23.550;2023-01-10T12:31:01;4.98;83.35
76299;DHT22;65236;42.332;23.550;2023-01-10T12:33:40;4.97;83.44
76299;DHT22;65236;42.332;23.550;2023-01-10T12:39:25;4.95;83.06
76299;DHT22;65236;42.332;23.550;2023-01-10T12:45:13;4.90;83.07
76299;DHT22;65236;42.332;23.550;2023-01-10T12:47:58;4.77;83.20
76299;DHT22;65236;42.332;23.550;2023-01-10T12:51:00;4.77;83.31
76299;DHT22;65236;42.332;23.550;2023-01-10T12:53:32;4.77;83.23
76299;DHT22;65236;42.332;23.550;2023-01-10T12:56:01;4.66;83.48
76299;DHT22;65236;42.332;23.550;2023-01-10T12:58:42;4.64;83.14
76299;DHT22;65236;42.332;23.550;2023-01-10T13:01:13;4.57;83.55
76299;DHT22;65236;42.332;23.550;2023-01-10T13:03:39;4.50;83.59
76299;DHT22;65236;42.332;23.550;2023-01-10T13:06:05;4.42;84.99
76299;DHT22;65236;42.332;23.550;2023-01-10T13:08:33;4.45;84.95
76299;DHT22;65236;42.332;23.550;2023-01-10T13:10:59;4.48;85.56
76299;DHT22;65236;42.332;23.550;2023-01-10T13:13:32;4.43;84.81
76299;DHT22;65236;42.332;23.550;2023-01-10T13:18:31;4.46;84.84
76299;DHT22;65236;42.332;23.550;2023-01-10T13:21:05;4.49;85.12
76299;DHT22;65236;42.332;23.550;2023-01-10T13:23:37;4.38;85.31
76299;DHT22;65236;42.332;23.550;2023-01-10T13:26:08;4.28;85.74
76299;DHT22;65236;42.332;23.550;2023-01-10T13:28:37;4.32;86.06
76299;DHT22;65236;42.332;23.550;2023-01-10T13:31:05;4.32;85.94
76299;DHT22;65236;42.332;23.550;2023-01-10T13:36:25;4.29;86.39
76299;DHT22;65236;42.332;23.550;2023-01-10T13:38:55;4.39;86.30
76299;DHT22;65236;42.332;23.550;2023-01-10T13:41:21;4.46;86.65
76299;DHT22;65236;42.332;23.550;2023-01-10T13:44:09;4.52;86.48
76299;DHT22;65236;42.332;23.550;2023-01-10T13:46:36;4.54;86.73
76299;DHT22;65236;42.332;23.550;2023-01-10T13:51:30;4.52;86.16
76299;DHT22;65236;42.332;23.550;2023-01-10T13:53:57;4.59;86.65
76299;DHT22;65236;42.332;23.550;2023-01-10T13:58:57;4.57;86.57
76299;DHT22;65236;42.332;23.550;2023-01-10T14:01:40;4.50;87.35
76299;DHT22;65236;42.332;23.550;2023-01-10T14:04:58;4.43;87.54
76299;DHT22;65236;42.332;23.550;2023-01-10T14:09:45;4.09;88.62
76299;DHT22;65236;42.332;23.550;2023-01-10T14:12:16;3.98;89.60
76299;DHT22;65236;42.332;23.550;2023-01-10T14:14:48;4.02;90.24
76299;DHT22;65236;42.332;23.550;2023-01-10T14:19:40;3.88;90.51
76299;DHT22;65236;42.332;23.550;2023-01-10T14:22:20;3.99;91.20
76299;DHT22;65236;42.332;23.550;2023-01-10T14:24:49;3.99;90.71
76299;DHT22;65236;42.332;23.550;2023-01-10T14:27:15;3.97;90.60
76299;DHT22;65236;42.332;23.550;2023-01-10T14:29:46;3.90;90.50
76299;DHT22;65236;42.332;23.550;2023-01-10T14:35:08;3.67;91.09
76299;DHT22;65236;42.332;23.550;2023-01-10T14:37:40;3.67;91.79
76299;DHT22;65236;42.332;23.550;2023-01-10T14:40:16;3.62;91.33
76299;DHT22;65236;42.332;23.550;2023-01-10T14:42:43;3.63;91.90
76299;DHT22;65236;42.332;23.550;2023-01-10T14:45:15;3.59;91.47
76299;DHT22;65236;42.332;23.550;2023-01-10T14:47:43;3.60;91.37
76299;DHT22;65236;42.332;23.550;2023-01-10T14:50:22;3.74;91.99
76299;DHT22;65236;42.332;23.550;2023-01-10T14:52:48;3.80;92.16
76299;DHT22;65236;42.332;23.550;2023-01-10T14:55:14;3.91;92.31
76299;DHT22;65236;42.332;23.550;2023-01-10T14:57:57;3.98;92.34
76299;DHT22;65236;42.332;23.550;2023-01-10T15:00:27;3.98;92.11
76299;DHT22;65236;42.332;23.550;2023-01-10T15:02:52;4.08;92.20
76299;DHT22;65236;42.332;23.550;2023-01-10T15:05:19;4.09;92.02
76299;DHT22;65236;42.332;23.550;2023-01-10T15:07:45;4.18;92.29
76299;DHT22;65236;42.332;23.550;2023-01-10T15:10:27;4.21;92.16
76299;DHT22;65236;42.332;23.550;2023-01-10T15:12:54;4.11;91.29
76299;DHT22;65236;42.332;23.550;2023-01-10T15:15:33;4.06;91.41
76299;DHT22;65236;42.332;23.550;2023-01-10T15:17:59;4.01;91.35
76299;DHT22;65236;42.332;23.550;2023-01-10T15:20:26;4.06;91.41
76299;DHT22;65236;42.332;23.550;2023-01-10T15:22:59;4.08;91.37
76299;DHT22;65236;42.332;23.550;2023-01-10T15:25:33;4.15;91.47
76299;DHT22;65236;42.332;23.550;2023-01-10T15:28:03;4.14;91.42
76299;DHT22;65236;42.332;23.550;2023-01-10T15:30:34;4.12;91.19
76299;DHT22;65236;42.332;23.550;2023-01-10T15:33:03;4.01;90.45
76299;DHT22;65236;42.332;23.550;2023-01-10T15:35:31;3.99;90.50
76299;DHT22;65236;42.332;23.550;2023-01-10T15:38:01;3.95;90.02
76299;DHT22;65236;42.332;23.550;2023-01-10T15:40:30;3.93;89.33
76299;DHT22;65236;42.332;23.550;2023-01-10T15:45:44;3.74;89.60
76299;DHT22;65236;42.332;23.550;2023-01-10T15:48:29;3.74;89.46
76299;DHT22;65236;42.332;23.550;2023-01-10T15:56:19;3.63;89.49
76299;DHT22;65236;42.332;23.550;2023-01-10T15:58:45;3.66;89.61
76299;DHT22;65236;42.332;23.550;2023-01-10T16:01:14;3.64;89.18
76299;DHT22;65236;42.332;23.550;2023-01-10T16:03:49;3.60;89.02
76299;DHT22;65236;42.332;23.550;2023-01-10T16:08:53;3.55;89.38
76299;DHT22;65236;42.332;23.550;2023-01-10T16:14:18;3.59;89.55
76299;DHT22;65236;42.332;23.550;2023-01-10T16:16:44;3.66;89.66
76299;DHT22;65236;42.332;23.550;2023-01-10T16:19:09;3.64;89.37
76299;DHT22;65236;42.332;23.550;2023-01-10T16:21:39;3.62;89.41
76299;DHT22;65236;42.332;23.550;2023-01-10T16:24:06;3.57;88.98
76299;DHT22;65236;42.332;23.550;2023-01-10T16:26:33;3.55;88.73
76299;DHT22;65236;42.332;23.550;2023-01-10T16:28:58;3.55;88.62
76299;DHT22;65236;42.332;23.550;2023-01-10T16:31:24;3.62;88.59
76299;DHT22;65236;42.332;23.550;2023-01-10T16:33:49;3.55;88.29
76299;DHT22;65236;42.332;23.550;2023-01-10T16:36:17;3.62;88.27
76299;DHT22;65236;42.332;23.550;2023-01-10T16:38:43;3.62;88.27
76299;DHT22;65236;42.332;23.550;2023-01-10T16:41:10;3.49;87.62
76299;DHT22;65236;42.332;23.550;2023-01-10T16:43:55;3.46;87.58
76299;DHT22;65236;42.332;23.550;2023-01-10T16:46:20;3.50;87.45
76299;DHT22;65236;42.332;23.550;2023-01-10T16:48:46;3.52;87.41
76299;DHT22;65236;42.332;23.550;2023-01-10T16:53:46;3.44;86.84
76299;DHT22;65236;42.332;23.550;2023-01-10T16:56:26;3.35;86.55
76299;DHT22;65236;42.332;23.550;2023-01-10T16:58:52;3.25;86.20
76299;DHT22;65236;42.332;23.550;2023-01-10T17:01:21;3.22;86.38
76299;DHT22;65236;42.332;23.550;2023-01-10T17:03:48;3.12;86.76
76299;DHT22;65236;42.332;23.550;2023-01-10T17:06:14;3.13;86.84
76299;DHT22;65236;42.332;23.550;2023-01-10T17:08:40;3.15;86.54
76299;DHT22;65236;42.332;23.550;2023-01-10T17:11:06;3.13;86.63
76299;DHT22;65236;42.332;23.550;2023-01-10T17:13:33;3.23;86.55
76299;DHT22;65236;42.332;23.550;2023-01-10T17:16:00;3.18;86.11
76299;DHT22;65236;42.332;23.550;2023-01-10T17:18:26;3.18;86.04
76299;DHT22;65236;42.332;23.550;2023-01-10T17:20:53;3.13;85.82
76299;DHT22;65236;42.332;23.550;2023-01-10T17:23:18;3.15;85.86
76299;DHT22;65236;42.332;23.550;2023-01-10T17:25:44;3.16;85.73
76299;DHT22;65236;42.332;23.550;2023-01-10T17:28:11;3.13;85.20
76299;DHT22;65236;42.332;23.550;2023-01-10T17:30:40;3.08;85.16
76299;DHT22;65236;42.332;23.550;2023-01-10T17:33:06;2.98;85.52
76299;DHT22;65236;42.332;23.550;2023-01-10T17:35:41;2.94;85.41
76299;DHT22;65236;42.332;23.550;2023-01-10T17:38:08;2.80;85.62
76299;DHT22;65236;42.332;23.550;2023-01-10T17:40:38;2.74;85.79
76299;DHT22;65236;42.332;23.550;2023-01-10T17:43:04;2.67;86.28
76299;DHT22;65236;42.332;23.550;2023-01-10T17:45:29;2.64;86.52
76299;DHT22;65236;42.332;23.550;2023-01-10T17:47:54;2.61;87.00